Time;durP1;ratioP1;P1;durP2;ratioP2;P2;SDS_P1;SDS_P2;PMS_P1;PMS_P2;Temp;Humidity;BMP_temperature;BMP_pressure;BME280_temperature;BME280_humidity;BME280_pressure;Samples;Min_cycle;Max_cycle;Signal;HPM_P1;HPM_P2
2021/12/04 00:00:47;;;;;;;107.43;28.77;;;5.90;93.80;;;;;;5065772;28;20159;-78
2021/12/04 00:03:13;;;;;;;116.40;31.00;;;5.90;93.80;;;;;;5063312;28;20067;-78
2021/12/04 00:05:43;;;;;;;119.10;30.42;;;5.90;93.80;;;;;;5068543;28;20577;-78
2021/12/04 00:08:09;;;;;;;109.75;29.60;;;5.90;93.80;;;;;;5063889;28;20067;-78
2021/12/04 00:10:35;;;;;;;121.32;30.52;;;5.90;93.80;;;;;;5046418;28;20081;-78
2021/12/04 00:13:00;;;;;;;112.68;30.17;;;5.90;93.80;;;;;;5055397;28;20119;-79
2021/12/04 00:15:26;;;;;;;120.75;30.00;;;5.90;94.20;;;;;;5066251;28;20065;-78
2021/12/04 00:17:52;;;;;;;114.07;29.58;;;5.90;93.80;;;;;;5084616;28;20088;-78
2021/12/04 00:20:17;;;;;;;126.20;30.10;;;5.90;93.80;;;;;;5084645;28;20078;-78
2021/12/04 00:22:43;;;;;;;123.50;29.73;;;5.90;94.20;;;;;;5050109;28;20527;-78
2021/12/04 00:25:10;;;;;;;131.25;28.85;;;5.90;93.80;;;;;;5084388;28;20489;-78
2021/12/04 00:27:36;;;;;;;130.82;31.58;;;5.90;93.80;;;;;;5081401;28;20108;-78
2021/12/04 00:30:04;;;;;;;127.90;29.85;;;5.90;93.80;;;;;;5084014;28;20131;-78
2021/12/04 00:32:34;;;;;;;123.55;32.30;;;5.90;93.90;;;;;;5089391;28;21301;-78
2021/12/04 00:35:39;;;;;;;129.40;32.03;;;5.90;93.80;;;;;;5052976;28;20067;-78
2021/12/04 00:51:15;;;;;;;146.18;31.27;;;5.90;93.80;;;;;;5063977;28;20104;-78
2021/12/04 00:53:41;;;;;;;130.50;32.22;;;5.90;93.80;;;;;;5083271;28;20057;-78
2021/12/04 00:56:07;;;;;;;129.30;31.95;;;5.90;93.80;;;;;;5066622;28;20135;-78
2021/12/04 00:58:32;;;;;;;127.05;30.42;;;5.90;93.80;;;;;;5084928;28;20070;-79
2021/12/04 01:00:59;;;;;;;123.65;29.05;;;5.90;93.80;;;;;;5065199;28;20067;-78
2021/12/04 01:03:25;;;;;;;123.20;30.40;;;5.90;93.80;;;;;;5049189;28;20078;-78
2021/12/04 01:05:50;;;;;;;116.07;29.58;;;5.90;93.80;;;;;;5064565;28;20101;-78
2021/12/04 01:08:18;;;;;;;120.47;28.73;;;5.90;93.80;;;;;;5050718;28;20085;-79
2021/12/04 01:10:43;;;;;;;121.78;28.55;;;5.90;93.80;;;;;;5050469;28;21381;-78
2021/12/04 01:13:12;;;;;;;126.20;29.10;;;5.90;93.80;;;;;;5085696;28;20137;-78
2021/12/04 01:15:44;;;;;;;118.28;29.00;;;5.90;93.80;;;;;;5051228;28;20158;-79
2021/12/04 01:18:11;;;;;;;114.65;30.17;;;5.90;93.80;;;;;;5060227;28;20521;-79
2021/12/04 01:20:38;;;;;;;106.35;23.80;;;5.90;93.80;;;;;;5066937;28;20070;-78
2021/12/04 01:23:05;;;;;;;105.30;26.42;;;5.90;93.80;;;;;;5065497;28;20076;-78
2021/12/04 01:25:30;;;;;;;99.05;24.85;;;5.90;93.90;;;;;;5083540;28;20147;-78
2021/12/04 01:27:56;;;;;;;102.03;26.15;;;5.90;93.90;;;;;;5049920;28;20167;-78
2021/12/04 01:30:22;;;;;;;99.20;24.60;;;5.90;93.80;;;;;;5069629;28;20055;-78
2021/12/04 01:32:48;;;;;;;86.32;24.48;;;5.90;93.80;;;;;;5038906;28;20068;-78
2021/12/04 01:35:13;;;;;;;86.45;24.85;;;5.90;93.80;;;;;;5066361;28;20280;-78
2021/12/04 01:37:39;;;;;;;84.05;23.60;;;5.90;93.80;;;;;;5065921;28;20071;-77
2021/12/04 01:40:05;;;;;;;87.95;24.48;;;5.90;93.80;;;;;;5061663;28;20070;-78
2021/12/04 01:42:35;;;;;;;78.43;23.35;;;5.90;93.80;;;;;;5063518;28;20498;-77
2021/12/04 01:45:02;;;;;;;83.07;23.35;;;5.90;93.80;;;;;;5054485;28;20053;-78
2021/12/04 01:47:28;;;;;;;78.63;23.20;;;5.90;93.80;;;;;;5064753;28;20093;-78
2021/12/04 01:49:55;;;;;;;86.00;21.40;;;5.90;93.80;;;;;;5088294;28;20068;-78
2021/12/04 01:52:21;;;;;;;72.75;21.15;;;5.90;93.80;;;;;;5063309;28;20812;-78
2021/12/04 01:54:48;;;;;;;82.50;22.00;;;5.90;93.80;;;;;;5047529;28;20070;-78
2021/12/04 01:57:15;;;;;;;57.58;17.92;;;5.90;93.80;;;;;;5083646;28;20650;-78
2021/12/04 01:59:42;;;;;;;68.43;20.60;;;5.90;93.70;;;;;;5067661;28;20068;-78
2021/12/04 02:02:08;;;;;;;64.50;20.55;;;5.90;93.70;;;;;;5068561;28;20070;-78
2021/12/04 02:04:33;;;;;;;69.18;21.17;;;5.90;93.80;;;;;;5088140;28;20154;-78
2021/12/04 02:07:04;;;;;;;69.70;20.30;;;5.90;93.70;;;;;;5071739;28;20130;-78
2021/12/04 02:09:34;;;;;;;64.80;18.95;;;5.90;93.70;;;;;;5073934;28;20091;-78
2021/12/04 02:12:03;;;;;;;65.05;20.15;;;5.90;93.70;;;;;;5087559;28;20108;-79
2021/12/04 02:14:29;;;;;;;59.53;19.35;;;5.90;93.70;;;;;;5086156;28;20434;-78
2021/12/04 02:16:55;;;;;;;60.55;20.45;;;5.90;93.70;;;;;;5072345;28;20066;-78
2021/12/04 02:19:21;;;;;;;55.88;18.13;;;6.00;93.70;;;;;;5052160;28;20428;-79
2021/12/04 02:21:47;;;;;;;57.30;19.38;;;6.00;93.70;;;;;;5084520;28;20418;-78
2021/12/04 02:24:13;;;;;;;64.60;20.13;;;6.00;93.70;;;;;;5067298;28;20079;-78
2021/12/04 02:26:38;;;;;;;57.83;19.17;;;6.00;93.70;;;;;;5080528;28;20115;-78
2021/12/04 02:29:04;;;;;;;55.40;19.48;;;6.00;93.70;;;;;;5065193;28;20151;-77
2021/12/04 02:31:31;;;;;;;62.67;18.13;;;6.00;93.70;;;;;;5056999;28;20071;-79
2021/12/04 02:33:56;;;;;;;54.55;18.95;;;6.00;93.70;;;;;;5091782;28;20060;-78
2021/12/04 02:36:22;;;;;;;53.28;17.65;;;6.00;93.70;;;;;;5072815;28;20085;-78
2021/12/04 02:38:53;;;;;;;57.40;18.40;;;6.00;93.70;;;;;;5069597;28;20135;-78
2021/12/04 02:41:21;;;;;;;51.67;18.02;;;6.00;93.60;;;;;;5055771;28;20158;-78
2021/12/04 02:43:47;;;;;;;52.97;17.17;;;6.00;93.60;;;;;;5090713;28;20194;-78
2021/12/04 02:46:17;;;;;;;61.00;18.40;;;6.00;94.00;;;;;;5045406;28;20174;-78
2021/12/04 02:48:44;;;;;;;54.97;19.42;;;6.00;93.60;;;;;;5092979;28;20055;-78
2021/12/04 02:51:10;;;;;;;51.50;17.92;;;6.00;93.60;;;;;;5086363;28;20058;-78
2021/12/04 02:53:36;;;;;;;55.20;17.40;;;6.00;93.60;;;;;;5069821;28;20601;-78
2021/12/04 02:56:04;;;;;;;56.28;19.35;;;6.00;93.60;;;;;;5041991;28;20074;-77
2021/12/04 02:58:34;;;;;;;55.13;18.30;;;6.00;93.60;;;;;;5062976;28;20063;-78
2021/12/04 03:01:01;;;;;;;59.95;19.63;;;5.90;93.60;;;;;;5065904;28;20583;-77
2021/12/04 03:03:27;;;;;;;63.53;18.63;;;6.00;93.60;;;;;;5076892;28;20133;-78
2021/12/04 03:05:53;;;;;;;56.15;18.38;;;6.00;93.60;;;;;;5067067;28;20109;-78
2021/12/04 03:08:20;;;;;;;53.92;17.48;;;5.90;93.60;;;;;;5052381;28;20073;-78
2021/12/04 03:10:50;;;;;;;54.75;17.48;;;5.90;93.60;;;;;;5088887;28;20055;-78
2021/12/04 03:13:18;;;;;;;51.75;17.60;;;5.90;93.60;;;;;;5070191;28;20062;-78
2021/12/04 03:15:46;;;;;;;55.38;18.40;;;6.00;93.60;;;;;;5072855;28;20067;-78
2021/12/04 03:18:11;;;;;;;61.38;16.98;;;5.90;93.60;;;;;;5051464;28;20066;-78
2021/12/04 03:20:43;;;;;;;54.78;16.98;;;5.90;93.50;;;;;;5065012;28;20067;-78
2021/12/04 03:23:18;;;;;;;57.70;18.05;;;5.90;93.60;;;;;;5068112;28;20074;-77
2021/12/04 03:25:45;;;;;;;52.33;16.65;;;5.90;93.60;;;;;;5087390;28;20074;-78
2021/12/04 03:28:13;;;;;;;64.25;18.10;;;5.90;93.60;;;;;;5069075;28;20062;-77
2021/12/04 03:30:47;;;;;;;56.25;17.77;;;5.90;93.60;;;;;;5035987;28;20410;-78
2021/12/04 03:41:07;;;;;;;60.47;17.90;;;5.90;93.60;;;;;;5081399;28;20080;-78
2021/12/04 03:43:33;;;;;;;67.85;21.17;;;5.90;93.60;;;;;;5067655;28;20062;-78
2021/12/04 03:46:01;;;;;;;61.97;18.55;;;5.90;93.60;;;;;;5067771;28;20113;-78
2021/12/04 03:50:54;;;;;;;70.97;19.95;;;5.90;93.60;;;;;;5086754;28;20066;-78
2021/12/04 03:53:20;;;;;;;67.25;18.70;;;5.90;93.60;;;;;;5084390;28;20073;-78
2021/12/04 03:55:46;;;;;;;61.30;17.83;;;5.90;93.60;;;;;;5068303;28;20057;-78
2021/12/04 03:58:12;;;;;;;64.97;19.08;;;5.90;93.60;;;;;;5087710;28;20066;-78
2021/12/04 04:00:38;;;;;;;60.17;17.80;;;5.90;93.60;;;;;;5051570;28;20069;-78
2021/12/04 04:03:03;;;;;;;62.20;18.10;;;5.90;93.60;;;;;;5066098;28;20064;-77
2021/12/04 04:05:29;;;;;;;67.10;17.80;;;5.90;93.60;;;;;;5081041;28;20065;-78
2021/12/04 04:07:55;;;;;;;74.85;18.73;;;5.90;93.60;;;;;;5061894;28;20162;-78
2021/12/04 04:10:21;;;;;;;59.45;17.63;;;5.90;93.60;;;;;;5052319;28;20402;-78
2021/12/04 04:12:48;;;;;;;68.07;18.48;;;5.90;93.60;;;;;;5060694;28;20061;-78
2021/12/04 04:15:14;;;;;;;69.40;19.83;;;5.90;93.70;;;;;;5056133;28;20542;-78
2021/12/04 04:17:43;;;;;;;58.03;18.55;;;5.90;93.60;;;;;;5082903;28;20076;-78
2021/12/04 04:20:16;;;;;;;58.40;17.40;;;5.90;93.60;;;;;;5071425;28;20115;-78
2021/12/04 04:22:43;;;;;;;64.20;18.38;;;6.00;93.70;;;;;;5083080;28;20067;-78
2021/12/04 04:25:09;;;;;;;63.47;18.00;;;6.00;93.70;;;;;;5045154;28;20057;-78
2021/12/04 04:27:35;;;;;;;62.42;18.48;;;6.00;93.60;;;;;;5085159;28;20095;-78
2021/12/04 04:30:04;;;;;;;67.93;18.33;;;6.00;93.70;;;;;;5082163;28;20125;-78
2021/12/04 04:32:30;;;;;;;62.80;17.25;;;6.00;93.70;;;;;;5065399;28;20157;-78
2021/12/04 04:34:57;;;;;;;57.20;16.88;;;6.00;93.60;;;;;;5043397;28;20151;-78
2021/12/04 04:37:38;;;;;;;57.45;17.73;;;6.00;93.60;;;;;;5079018;28;20059;-78
2021/12/04 05:12:54;;;;;;;65.07;16.83;;;6.00;93.60;;;;;;5054724;28;20111;-78
2021/12/04 05:15:35;;;;;;;63.55;19.48;;;6.00;93.60;;;;;;5071857;28;20616;-78
2021/12/04 05:20:38;;;;;;;62.65;17.27;;;6.10;93.60;;;;;;5078721;28;21188;-78
2021/12/04 05:23:07;;;;;;;74.97;18.08;;;6.10;93.60;;;;;;5048450;28;20868;-78
2021/12/04 05:25:35;;;;;;;62.47;16.98;;;6.00;93.60;;;;;;5085798;28;20062;-78
2021/12/04 05:28:05;;;;;;;66.03;16.85;;;6.00;93.60;;;;;;5062187;28;20086;-78
2021/12/04 05:30:31;;;;;;;64.80;17.42;;;6.00;93.60;;;;;;5085104;28;20404;-78
2021/12/04 05:32:57;;;;;;;66.07;17.10;;;6.00;93.60;;;;;;5081846;28;20066;-78
2021/12/04 05:35:22;;;;;;;69.70;17.98;;;6.00;93.60;;;;;;5065745;28;20072;-78
2021/12/04 05:37:49;;;;;;;75.78;17.42;;;6.00;93.60;;;;;;5055182;28;20418;-78
2021/12/04 05:40:16;;;;;;;64.25;16.63;;;6.10;93.60;;;;;;5086224;28;20135;-81
2021/12/04 05:42:43;;;;;;;71.07;17.73;;;6.10;93.60;;;;;;5074467;28;20091;-81
2021/12/04 05:45:17;;;;;;;63.33;16.27;;;6.00;93.60;;;;;;5069046;28;20415;-81
2021/12/04 05:47:53;;;;;;;73.50;19.42;;;6.10;93.60;;;;;;5073889;28;20080;-81
2021/12/04 05:57:38;;;;;;;65.85;18.00;;;6.00;93.60;;;;;;5072337;28;20562;-81
2021/12/04 06:00:26;;;;;;;69.90;16.83;;;6.00;93.60;;;;;;5082803;28;20078;-81
2021/12/04 06:02:52;;;;;;;70.13;16.77;;;6.00;93.60;;;;;;5082412;28;20452;-81
2021/12/04 06:05:18;;;;;;;79.65;17.67;;;6.00;93.60;;;;;;5073324;28;20074;-81
2021/12/04 06:07:44;;;;;;;78.70;17.42;;;6.00;93.60;;;;;;5055426;28;20117;-81
2021/12/04 06:10:10;;;;;;;73.15;17.67;;;6.10;93.60;;;;;;5085501;28;20060;-81
2021/12/04 06:12:37;;;;;;;80.65;19.00;;;6.10;93.60;;;;;;5071771;28;20065;-81
2021/12/04 06:15:03;;;;;;;76.70;18.15;;;6.00;93.60;;;;;;5069273;28;20059;-81
2021/12/04 06:17:29;;;;;;;88.80;19.48;;;6.10;93.60;;;;;;5070439;28;20072;-81
2021/12/04 06:22:41;;;;;;;87.38;19.63;;;6.00;93.60;;;;;;5070384;28;20589;-81
2021/12/04 06:25:15;;;;;;;81.72;18.65;;;6.00;93.60;;;;;;5064243;28;20575;-81
2021/12/04 06:27:43;;;;;;;75.22;18.10;;;6.10;93.70;;;;;;5069386;28;20058;-81
2021/12/04 06:30:13;;;;;;;80.90;19.40;;;6.00;93.60;;;;;;5066670;28;20058;-81
2021/12/04 06:32:38;;;;;;;81.38;18.92;;;6.10;93.60;;;;;;5071147;28;20061;-81
2021/12/04 06:35:07;;;;;;;80.30;18.80;;;6.00;93.60;;;;;;5089188;28;20770;-81
2021/12/04 06:37:33;;;;;;;79.95;18.95;;;6.00;93.60;;;;;;5057257;28;20064;-81
2021/12/04 06:40:00;;;;;;;88.47;19.63;;;6.00;93.60;;;;;;5070103;28;20095;-81
2021/12/04 06:42:25;;;;;;;77.63;19.35;;;6.00;93.70;;;;;;5083200;28;20070;-81
2021/12/04 06:44:54;;;;;;;77.80;19.70;;;6.00;93.70;;;;;;5053503;28;20061;-81
2021/12/04 06:47:20;;;;;;;95.95;20.80;;;6.00;93.70;;;;;;5071708;28;20173;-81
2021/12/04 06:49:46;;;;;;;86.13;20.40;;;6.00;93.70;;;;;;5072280;28;20082;-81
2021/12/04 06:52:21;;;;;;;91.88;21.08;;;6.00;93.70;;;;;;5068779;28;20107;-82
2021/12/04 06:54:56;;;;;;;107.32;21.65;;;6.00;94.00;;;;;;5048325;28;20066;-82
2021/12/04 06:57:22;;;;;;;102.97;22.13;;;6.00;93.70;;;;;;5063899;28;20071;-82
2021/12/04 06:59:49;;;;;;;89.00;21.42;;;6.00;93.70;;;;;;5072061;28;20074;-82
2021/12/04 07:02:15;;;;;;;93.43;20.00;;;6.00;93.70;;;;;;5070891;28;20841;-82
2021/12/04 07:04:41;;;;;;;112.82;22.67;;;6.00;93.70;;;;;;5055026;28;20163;-79
2021/12/04 07:07:08;;;;;;;95.55;22.77;;;6.00;93.70;;;;;;5066568;28;20100;-84
2021/12/04 07:09:35;;;;;;;92.75;22.25;;;6.00;93.70;;;;;;5054166;28;20067;-80
2021/12/04 07:12:01;;;;;;;101.25;22.15;;;6.00;93.70;;;;;;5050774;28;20112;-86
2021/12/04 07:14:28;;;;;;;95.38;21.55;;;6.00;93.70;;;;;;5041852;28;20073;-82
2021/12/04 07:16:55;;;;;;;98.90;22.75;;;6.00;93.80;;;;;;5067239;28;20064;-80
2021/12/04 07:19:21;;;;;;;94.03;21.60;;;6.00;93.70;;;;;;5056428;28;20072;-80
2021/12/04 07:21:47;;;;;;;104.18;22.95;;;6.00;93.70;;;;;;5068152;28;20062;-81
2021/12/04 07:24:14;;;;;;;111.00;24.02;;;6.00;93.70;;;;;;5086198;28;20045;-81
2021/12/04 07:26:41;;;;;;;111.15;21.60;;;6.00;93.70;;;;;;5067024;28;20109;-80
2021/12/04 07:29:07;;;;;;;91.88;19.90;;;5.90;93.70;;;;;;5088177;28;20130;-82
2021/12/04 07:31:33;;;;;;;141.43;23.48;;;6.00;94.10;;;;;;5071908;28;20441;-81
2021/12/04 07:34:00;;;;;;;89.93;22.08;;;5.90;93.70;;;;;;5090872;28;20068;-82
2021/12/04 07:36:26;;;;;;;104.15;23.50;;;5.90;93.70;;;;;;5070161;28;20149;-80
2021/12/04 07:38:53;;;;;;;90.03;19.45;;;5.90;93.70;;;;;;5089256;28;20070;-81
2021/12/04 07:41:19;;;;;;;123.40;21.98;;;5.90;93.80;;;;;;5054097;28;20063;-80
2021/12/04 07:43:45;;;;;;;94.85;21.48;;;5.90;93.70;;;;;;5054376;28;20072;-81
2021/12/04 07:46:12;;;;;;;101.93;20.30;;;6.00;93.80;;;;;;5086148;28;20221;-81
2021/12/04 07:48:37;;;;;;;108.72;22.50;;;5.90;93.80;;;;;;5050253;28;20084;-80
2021/12/04 07:51:04;;;;;;;96.13;20.52;;;5.90;93.80;;;;;;5085801;28;20155;-80
2021/12/04 07:53:31;;;;;;;107.75;20.60;;;5.90;93.80;;;;;;5071525;28;20193;-82
2021/12/04 07:55:57;;;;;;;95.30;21.20;;;5.90;93.80;;;;;;5067906;28;20106;-82
2021/12/04 07:58:22;;;;;;;101.05;20.10;;;5.90;93.80;;;;;;5064363;28;20484;-81
2021/12/04 08:00:48;;;;;;;95.45;20.80;;;6.00;93.90;;;;;;5041536;28;20165;-80
2021/12/04 08:03:14;;;;;;;94.50;21.02;;;5.90;93.80;;;;;;5068725;28;23430;-82
2021/12/04 08:05:40;;;;;;;98.93;20.35;;;5.90;93.80;;;;;;5037238;28;20205;-80
2021/12/04 08:08:06;;;;;;;94.82;19.63;;;5.90;93.80;;;;;;5063732;28;20097;-86
2021/12/04 08:10:33;;;;;;;105.47;22.77;;;6.00;93.90;;;;;;5068317;28;20054;-86
2021/12/04 08:13:01;;;;;;;106.10;20.23;;;5.90;93.90;;;;;;5074784;28;20090;-83
2021/12/04 08:15:27;;;;;;;83.57;18.75;;;6.00;93.90;;;;;;5085682;28;20053;-85
2021/12/04 08:17:53;;;;;;;84.25;18.88;;;5.90;93.80;;;;;;5081939;28;20548;-80
2021/12/04 08:20:19;;;;;;;67.90;17.77;;;6.00;93.90;;;;;;5063390;28;20060;-82
2021/12/04 08:22:45;;;;;;;79.03;17.20;;;5.90;93.80;;;;;;5069921;28;20068;-81
2021/12/04 08:25:15;;;;;;;84.43;19.15;;;5.90;93.80;;;;;;5065221;28;20055;-84
2021/12/04 08:27:41;;;;;;;77.38;18.00;;;5.90;93.90;;;;;;5068844;28;20172;-81
2021/12/04 08:30:11;;;;;;;76.50;18.15;;;5.90;93.90;;;;;;5054098;28;20067;-81
2021/12/04 08:32:37;;;;;;;66.40;15.40;;;6.00;93.90;;;;;;5083916;28;20060;-80
2021/12/04 08:35:04;;;;;;;74.95;17.05;;;6.00;93.90;;;;;;5067385;28;20061;-81
2021/12/04 08:37:30;;;;;;;69.88;17.27;;;5.90;93.90;;;;;;5079885;28;20595;-80
2021/12/04 08:39:55;;;;;;;68.05;16.40;;;5.90;93.90;;;;;;5052819;28;20069;-81
2021/12/04 08:42:22;;;;;;;78.53;17.83;;;6.00;93.90;;;;;;5065590;28;20068;-80
2021/12/04 08:44:48;;;;;;;75.85;17.70;;;6.00;93.90;;;;;;5086526;28;20066;-80
2021/12/04 08:47:14;;;;;;;68.03;18.23;;;6.00;93.90;;;;;;5070690;28;20164;-80
2021/12/04 08:49:40;;;;;;;69.75;18.42;;;6.00;93.90;;;;;;5086299;28;20056;-81
2021/12/04 08:52:07;;;;;;;74.43;18.27;;;6.00;93.90;;;;;;5085968;28;20057;-81
2021/12/04 08:54:33;;;;;;;80.30;19.95;;;6.00;93.90;;;;;;5043411;28;20164;-81
2021/12/04 08:56:58;;;;;;;68.20;17.65;;;6.00;93.90;;;;;;5066549;28;20169;-81
2021/12/04 08:59:24;;;;;;;75.15;18.25;;;6.00;93.90;;;;;;5083074;28;20095;-81
2021/12/04 09:01:50;;;;;;;68.07;17.90;;;6.00;93.90;;;;;;5053002;28;20092;-80
2021/12/04 09:04:24;;;;;;;74.75;18.83;;;6.00;93.90;;;;;;5054115;28;20533;-83
2021/12/04 09:06:51;;;;;;;78.25;17.73;;;6.10;93.90;;;;;;5073681;28;20096;-83
2021/12/04 09:09:17;;;;;;;88.18;19.98;;;6.10;94.30;;;;;;5067514;28;20065;-80
2021/12/04 09:11:53;;;;;;;75.18;17.73;;;6.10;93.90;;;;;;5076073;28;20104;-81
2021/12/04 09:14:24;;;;;;;78.88;19.10;;;6.10;94.30;;;;;;5089417;28;20058;-81
2021/12/04 09:16:52;;;;;;;83.38;19.73;;;6.10;93.90;;;;;;5072169;28;20507;-84
2021/12/04 09:19:19;;;;;;;79.28;20.13;;;6.10;93.80;;;;;;5069546;28;20061;-82
2021/12/04 09:21:46;;;;;;;73.10;18.63;;;6.10;93.80;;;;;;5074846;28;20112;-81
2021/12/04 09:24:16;;;;;;;72.63;17.48;;;6.10;93.80;;;;;;5090851;28;20793;-81
2021/12/04 09:26:59;;;;;;;86.07;19.75;;;6.10;93.80;;;;;;5045333;28;20076;-82
2021/12/04 10:18:20;;;;;;;64.45;17.38;;;6.30;93.80;;;;;;5102739;28;20050;-83
2021/12/04 10:34:28;;;;;;;52.63;14.55;;;6.40;93.70;;;;;;5088008;28;20071;-84
2021/12/04 10:36:54;;;;;;;51.90;15.30;;;6.40;93.70;;;;;;5086943;28;20172;-85
2021/12/04 10:39:20;;;;;;;51.75;13.85;;;6.50;93.70;;;;;;5071584;28;20055;-85
2021/12/04 10:41:47;;;;;;;53.35;14.65;;;6.50;93.70;;;;;;5045175;28;20078;-86
2021/12/04 10:44:21;;;;;;;61.83;15.60;;;6.50;93.60;;;;;;5071814;28;20069;-85
2021/12/04 10:47:07;;;;;;;50.67;15.25;;;6.50;93.60;;;;;;5095257;28;20071;-82
2021/12/04 10:59:09;;;;;;;68.50;18.23;;;6.50;93.60;;;;;;4994548;28;20101;-83
2021/12/04 11:04:08;;;;;;;73.05;18.80;;;6.50;93.50;;;;;;5087298;28;20057;-80
2021/12/04 11:37:34;;;;;;;89.70;22.35;;;6.50;93.50;;;;;;5086341;28;20130;-81
2021/12/04 11:40:23;;;;;;;83.10;22.45;;;6.50;93.50;;;;;;5061695;28;20530;-80
2021/12/04 11:42:57;;;;;;;80.40;22.35;;;6.50;93.50;;;;;;5068124;28;20061;-80
2021/12/04 11:45:34;;;;;;;94.93;22.95;;;6.50;93.50;;;;;;5054143;28;20062;-81
2021/12/04 11:48:03;;;;;;;89.05;23.75;;;6.50;93.50;;;;;;5090034;28;20471;-80
2021/12/04 11:50:39;;;;;;;88.72;23.00;;;6.50;93.50;;;;;;5087927;28;20416;-81
2021/12/04 11:53:09;;;;;;;99.15;23.88;;;6.50;93.60;;;;;;5083726;28;20081;-82
2021/12/04 11:55:39;;;;;;;76.18;22.02;;;6.50;93.50;;;;;;5071051;28;20083;-81
2021/12/04 11:58:23;;;;;;;87.65;21.45;;;6.50;93.50;;;;;;5088357;28;20053;-81
2021/12/04 12:00:51;;;;;;;92.10;23.45;;;6.60;93.60;;;;;;5082252;28;20080;-81
2021/12/04 12:03:30;;;;;;;102.65;23.83;;;6.60;93.60;;;;;;5050877;28;20077;-81
2021/12/04 12:06:03;;;;;;;88.45;22.70;;;6.60;93.60;;;;;;5066956;28;20065;-81
2021/12/04 12:08:30;;;;;;;85.05;22.50;;;6.60;93.60;;;;;;5064337;28;20426;-81
2021/12/04 12:11:19;;;;;;;82.72;20.02;;;6.60;93.50;;;;;;5067968;28;20169;-82
2021/12/04 12:13:50;;;;;;;78.63;20.48;;;6.70;93.60;;;;;;5053574;28;20071;-81
2021/12/04 12:16:21;;;;;;;85.97;23.63;;;6.70;93.60;;;;;;5079483;28;20080;-81
2021/12/04 12:18:57;;;;;;;76.28;19.98;;;6.70;93.50;;;;;;5069419;28;20312;-81
2021/12/04 12:21:58;;;;;;;82.22;21.00;;;6.70;93.50;;;;;;5062169;28;20049;-82
2021/12/04 12:33:11;;;;;;;72.90;17.92;;;6.70;93.50;;;;;;5082994;28;20074;-77
2021/12/04 12:36:03;;;;;;;57.97;17.73;;;6.70;93.50;;;;;;5067278;28;20491;-79
2021/12/04 12:38:53;;;;;;;60.78;14.73;;;6.80;93.50;;;;;;5063586;28;20139;-81
2021/12/04 12:41:30;;;;;;;64.13;16.63;;;6.80;93.50;;;;;;5086485;28;20059;-80
2021/12/04 12:44:37;;;;;;;65.70;16.77;;;6.70;93.40;;;;;;5070773;28;20500;-81
2021/12/04 12:47:05;;;;;;;58.95;16.15;;;6.70;93.40;;;;;;5025957;28;20086;-81
2021/12/04 12:49:34;;;;;;;77.45;19.33;;;6.70;93.70;;;;;;5009475;28;20118;-82
2021/12/04 12:52:20;;;;;;;70.57;18.35;;;6.70;93.30;;;;;;5036414;28;20124;-82
2021/12/04 12:54:56;;;;;;;68.07;17.67;;;6.70;93.40;;;;;;5080316;28;20065;-80
2021/12/04 12:57:23;;;;;;;76.38;19.08;;;6.70;93.40;;;;;;5067536;28;20092;-78
2021/12/04 13:13:54;;;;;;;80.35;19.38;;;6.80;93.40;;;;;;5083947;28;20438;-80
2021/12/04 13:16:28;;;;;;;69.88;18.77;;;6.80;93.80;;;;;;5048869;28;20062;-81
2021/12/04 13:18:58;;;;;;;74.50;19.85;;;6.80;93.40;;;;;;5082109;28;20054;-81
2021/12/04 13:21:25;;;;;;;82.05;18.90;;;6.80;93.40;;;;;;5085959;28;20046;-80
2021/12/04 13:23:54;;;;;;;78.55;20.17;;;6.80;93.40;;;;;;5061414;28;20051;-80
2021/12/04 13:26:29;;;;;;;73.03;17.52;;;6.80;93.40;;;;;;5087498;28;20064;-80
2021/12/04 13:28:59;;;;;;;89.40;20.17;;;6.80;93.40;;;;;;5068747;28;20572;-80
2021/12/04 13:31:25;;;;;;;75.05;19.63;;;6.80;93.30;;;;;;5068681;28;20167;-80
2021/12/04 13:33:52;;;;;;;79.35;20.30;;;6.70;93.30;;;;;;5085483;28;20850;-80
2021/12/04 13:36:24;;;;;;;87.30;19.65;;;6.80;93.40;;;;;;5064537;28;20568;-81
2021/12/04 13:38:58;;;;;;;83.00;22.10;;;6.70;93.40;;;;;;5085449;28;20416;-80
2021/12/04 13:41:24;;;;;;;78.78;20.23;;;6.70;93.40;;;;;;5078951;28;20057;-80
2021/12/04 13:43:55;;;;;;;80.03;20.67;;;6.80;93.40;;;;;;5045867;28;20070;-80
2021/12/04 13:46:21;;;;;;;89.85;21.88;;;6.70;93.40;;;;;;5050915;28;20525;-80
2021/12/04 13:48:47;;;;;;;85.35;21.50;;;6.80;93.40;;;;;;5050169;28;20070;-80
2021/12/04 13:51:14;;;;;;;84.88;21.38;;;6.70;93.80;;;;;;5071509;28;20058;-80
2021/12/04 13:53:43;;;;;;;88.40;23.25;;;6.70;93.40;;;;;;5040641;28;20054;-80
2021/12/04 13:56:15;;;;;;;99.85;22.83;;;6.80;93.40;;;;;;5070226;28;20056;-80
2021/12/04 13:59:03;;;;;;;79.65;23.20;;;6.80;93.40;;;;;;5070249;28;20063;-80
2021/12/04 14:01:31;;;;;;;87.38;21.70;;;6.70;93.30;;;;;;5072180;28;20067;-80
2021/12/04 14:04:02;;;;;;;83.65;24.45;;;6.70;93.40;;;;;;5082662;28;20483;-80
2021/12/04 14:06:28;;;;;;;87.18;25.88;;;6.80;93.40;;;;;;5047126;28;20094;-79
2021/12/04 14:09:07;;;;;;;93.03;23.90;;;6.70;93.40;;;;;;5069543;28;20062;-84
2021/12/04 14:11:37;;;;;;;84.72;25.33;;;6.70;93.40;;;;;;5068717;28;20074;-81
2021/12/04 14:14:15;;;;;;;96.90;25.10;;;6.70;93.40;;;;;;5073041;28;21722;-79
2021/12/04 14:16:42;;;;;;;101.63;31.23;;;6.70;93.40;;;;;;5070869;28;20413;-79
2021/12/04 14:19:17;;;;;;;110.65;36.00;;;6.70;93.30;;;;;;5079501;28;20064;-79
2021/12/04 14:21:56;;;;;;;95.50;27.88;;;6.70;93.40;;;;;;5071549;28;20063;-79
2021/12/04 14:24:48;;;;;;;110.70;32.65;;;6.70;93.40;;;;;;5081725;28;20057;-79
2021/12/04 14:27:26;;;;;;;114.88;37.60;;;6.70;93.40;;;;;;5083587;28;20108;-80
2021/12/04 14:30:02;;;;;;;110.18;37.60;;;6.70;93.40;;;;;;5080172;28;20144;-79
2021/12/04 14:32:31;;;;;;;114.50;34.72;;;6.60;93.40;;;;;;5088316;28;20059;-80
2021/12/04 14:35:06;;;;;;;114.47;32.42;;;6.60;93.40;;;;;;5084890;28;20120;-79
2021/12/04 14:37:34;;;;;;;107.05;28.20;;;6.60;93.40;;;;;;5067221;28;20060;-78
2021/12/04 14:40:00;;;;;;;109.90;29.85;;;6.70;93.80;;;;;;5069275;28;20508;-78
2021/12/04 14:42:29;;;;;;;128.27;35.50;;;6.70;93.40;;;;;;5077790;28;20060;-78
2021/12/04 14:45:03;;;;;;;185.68;50.90;;;6.70;93.40;;;;;;5085736;28;20125;-79
2021/12/04 14:47:33;;;;;;;141.30;43.95;;;6.70;93.40;;;;;;5065627;28;20066;-79
2021/12/04 14:50:00;;;;;;;100.25;27.95;;;6.70;93.50;;;;;;5084117;28;20063;-79
2021/12/04 14:52:29;;;;;;;109.15;28.55;;;6.70;93.40;;;;;;5059727;28;20061;-79
2021/12/04 14:54:55;;;;;;;110.00;28.17;;;6.70;93.40;;;;;;5071536;28;20100;-80
2021/12/04 14:57:24;;;;;;;129.05;31.05;;;6.60;93.40;;;;;;5049085;28;20069;-79
2021/12/04 15:00:19;;;;;;;104.25;28.85;;;6.70;93.40;;;;;;5088094;28;20115;-79
2021/12/04 15:02:50;;;;;;;122.53;28.92;;;6.60;93.50;;;;;;5062464;28;20074;-79
2021/12/04 15:05:28;;;;;;;119.63;29.67;;;6.60;93.50;;;;;;5069834;28;20136;-79
2021/12/04 15:08:05;;;;;;;117.07;30.23;;;6.60;93.50;;;;;;5068853;28;20128;-79
2021/12/04 15:10:31;;;;;;;131.65;31.52;;;6.60;93.50;;;;;;5072541;28;20184;-80
2021/12/04 15:12:58;;;;;;;130.55;29.83;;;6.60;93.50;;;;;;5086014;28;20140;-80
2021/12/04 15:15:29;;;;;;;147.55;42.88;;;6.60;93.50;;;;;;5068807;28;20068;-78
2021/12/04 15:18:10;;;;;;;116.22;30.60;;;6.60;93.50;;;;;;5067626;28;20426;-77
2021/12/04 15:20:41;;;;;;;121.93;34.92;;;6.70;93.70;;;;;;5086533;28;20062;-77
2021/12/04 15:23:13;;;;;;;145.25;34.05;;;6.70;93.60;;;;;;5085773;28;20051;-77
2021/12/04 15:25:40;;;;;;;118.97;31.08;;;6.70;93.60;;;;;;5065232;28;20063;-77
2021/12/04 15:28:17;;;;;;;117.50;32.00;;;6.70;93.60;;;;;;5072452;28;20136;-78
2021/12/04 15:30:47;;;;;;;123.32;30.60;;;6.70;93.60;;;;;;5069674;28;20054;-80
2021/12/04 15:33:26;;;;;;;132.07;32.58;;;6.70;93.60;;;;;;5070356;28;20044;-80
2021/12/04 15:35:52;;;;;;;121.60;33.80;;;6.70;93.60;;;;;;5060018;28;20056;-80
2021/12/04 15:38:38;;;;;;;119.85;29.00;;;6.70;93.60;;;;;;5071563;28;20070;-77
2021/12/04 15:41:30;;;;;;;118.38;30.85;;;6.70;93.60;;;;;;5081935;28;20075;-76
2021/12/04 15:55:02;;;;;;;131.15;35.13;;;6.70;93.60;;;;;;5084574;28;20117;-76
2021/12/04 15:57:28;;;;;;;108.57;27.75;;;6.70;93.60;;;;;;5070484;28;20109;-80
2021/12/04 15:59:53;;;;;;;132.63;34.92;;;6.70;93.60;;;;;;5050930;28;20081;-85
2021/12/04 16:02:22;;;;;;;119.72;28.77;;;6.70;93.60;;;;;;5049629;28;20833;-86
2021/12/04 16:04:50;;;;;;;118.47;30.30;;;6.70;93.60;;;;;;5085339;28;20428;-80
2021/12/04 16:07:28;;;;;;;114.10;31.15;;;6.70;93.70;;;;;;5072600;28;20095;-83
2021/12/04 16:09:58;;;;;;;120.05;34.63;;;6.70;93.60;;;;;;5063186;28;20082;-82
2021/12/04 16:12:23;;;;;;;112.70;28.23;;;6.70;93.70;;;;;;5054261;28;20090;-88